Address 0x5fb8b9512684d451d4e585a1a0aabfb48a253c67 10

 
Txn Hash Method
Block
From
To
Value [Txn Fee]
0xc7edb754c8d8d5e78f4e947f7969c1edf0b7b38e28c9b6481207e6cb54d429d4Swap Exact Token...47205582022-01-17 5:08:143 mins ago0x5fb8b9512684d451d4e585a1a0aabfb48a253c67OUT SushiSwap: Router0 ETH0.001366545144 ETH
0xff74996859f484ff9e79ff0d7dc97dd27c54b932296978e8d52f320c29a5047eSwap Exact Token...47203522022-01-17 5:01:2510 mins ago0x5fb8b9512684d451d4e585a1a0aabfb48a253c67OUT SushiSwap: Router0 ETH0.001368443093 ETH
0xed14a64602fef5b97074d47152170a255317e3194f14575942923256fe8d7ab8Swap ETH For Exa...47184442022-01-17 3:51:141 hr 20 mins ago0x5fb8b9512684d451d4e585a1a0aabfb48a253c67OUT SushiSwap: Router2.90831133531731 ETH0.001489152636 ETH
0x46bdef85c1d25ec039af6af5dad3a34c968ad2494eb0b0a63c70e4e1104892c7Swap ETH For Exa...47165882022-01-17 2:43:512 hrs 27 mins ago0x5fb8b9512684d451d4e585a1a0aabfb48a253c67OUT SushiSwap: Router4.179717108408007 ETH0.001342025874 ETH
0xab56ef8d25074fdbf33c024a2ce9c8eb2c654e64139d4f58019b73b32c83ed8fSwap ETH For Exa...47165132022-01-17 2:41:002 hrs 30 mins ago0x5fb8b9512684d451d4e585a1a0aabfb48a253c67OUT SushiSwap: Router4.205158647235268 ETH0.001341772981 ETH
0x3a863758def4f6db9e12bb5d8b3ff2a1b2ac8c554ad834a4d4868d1a47fe0f6bTransfer47161432022-01-17 2:29:152 hrs 42 mins ago0x8a5038978cd9afa2fdc329a8ee8e81a8bb0f4e48 IN 0x5fb8b9512684d451d4e585a1a0aabfb48a253c678.79 ETH0.000890404318 ETH
0x76fffb7f01e5bbc4d7b585de9e7ad49eefbd69af1c4f22f5869583ebdea9aafdSwap ETH For Exa...47028922022-01-16 16:54:4312 hrs 17 mins ago0x5fb8b9512684d451d4e585a1a0aabfb48a253c67OUT SushiSwap: Router2.953593942764939 ETH0.001350327517 ETH
0xa5b4f1f1190b7baed15ff0693a54b47ace93cd04163b907f176509f96e4d1a0eSwap Exact Token...47025222022-01-16 16:42:1112 hrs 29 mins ago0x5fb8b9512684d451d4e585a1a0aabfb48a253c67OUT SushiSwap: Router0 ETH0.001238794818 ETH
0xf7c91e4b940bcde54078e59d310d047424052656095067a8987fbde95b64ed92Swap Exact Token...46977572022-01-16 13:49:0615 hrs 22 mins ago0x5fb8b9512684d451d4e585a1a0aabfb48a253c67OUT SushiSwap: Router0 ETH0.001281956519 ETH
0xfb7db4d2c19ca3dfafa4a9ebb9d7a537899b953e59aea61226fa2fa89d7eb1ebSwap Exact Token...46902542022-01-16 8:08:5021 hrs 3 mins ago0x5fb8b9512684d451d4e585a1a0aabfb48a253c67OUT SushiSwap: Router0 ETH0.00142328323 ETH
0x9b75bb81c5578fe0562c0c6e22eb94e464e5b3ff8e1c1c1ca34a9e85d24a1bdfSwap Exact Token...46894642022-01-16 7:35:2121 hrs 36 mins ago0x5fb8b9512684d451d4e585a1a0aabfb48a253c67OUT SushiSwap: Router0 ETH0.001421313583 ETH
0xb749a59c991012490ccf5040f928861b95cf20d53ce91ebc13b91dbda03fb5b6Swap Exact Token...46893092022-01-16 7:27:3321 hrs 44 mins ago0x5fb8b9512684d451d4e585a1a0aabfb48a253c67OUT SushiSwap: Router0 ETH0.001413412155 ETH
0xb68edf560688283e7afb1e718bf5f5da507d2853bf72400c1bb697f61dc02686Transfer46866752022-01-16 4:59:381 day 12 mins ago0x5fb8b9512684d451d4e585a1a0aabfb48a253c67OUT0x6c2c06790b3e3e3c38e12ee22f8183b37a13ee550 ETH0.001192298402 ETH
0x6fdfcb377531bb1a51dc93ded4e74ad07b87045b09a8f01b5fccb85f9704e76dTransfer46866682022-01-16 4:59:381 day 12 mins ago0x5fb8b9512684d451d4e585a1a0aabfb48a253c67OUT0x8a5038978cd9afa2fdc329a8ee8e81a8bb0f4e4817 ETH0.00093924103 ETH
0x0c5f0a95cbe92a15a20648578a3ef42fcfc1ef8d183135cc3d02c6d817bd3475Outbound Transfe...46855292022-01-16 3:56:511 day 1 hr ago0x5fb8b9512684d451d4e585a1a0aabfb48a253c67OUT 0x5288c571fd7ad117bea99bf60fe0846c4e84f9330 ETH0.001169878982 ETH
0x8e642446490427f3172f8dc0f6a6716e02a17af5f387c20756e261eee9397693Swap ETH For Exa...46855002022-01-16 3:56:081 day 1 hr ago0x5fb8b9512684d451d4e585a1a0aabfb48a253c67OUT SushiSwap: Router3.291728713891595 ETH0.001428141926 ETH
0x183a9d9ed716b37250148805a13f72469cbdf127ea8ca5615344995af246b1870x679b6ded46834682022-01-16 2:24:491 day 2 hrs ago0x5fb8b9512684d451d4e585a1a0aabfb48a253c67OUT0x000000000000000000000000000000000000006e35 ETH0.000000151878 ETH
0x22b4ded3dae689c11b2785fa75fdd67f918c2b55618cc27fb43e2f7ef50f27efSwap ETH For Exa...46833692022-01-16 2:16:161 day 2 hrs ago0x5fb8b9512684d451d4e585a1a0aabfb48a253c67OUT SushiSwap: Router3.625442843152984 ETH0.001447393047 ETH
0xb33a4e28ced560d7a339ddd793bb80af57f1218ab0ec077fda906b6243ec0b98Swap ETH For Exa...46821932022-01-16 1:00:331 day 4 hrs ago0x5fb8b9512684d451d4e585a1a0aabfb48a253c67OUT SushiSwap: Router3.235115814047982 ETH0.001451025439 ETH
0xe4995fd40f1f753e92b22bcfebee32165c1df08621527123b43ddc537b61ef39Transfer46805282022-01-15 23:22:421 day 5 hrs ago0x8a5038978cd9afa2fdc329a8ee8e81a8bb0f4e48 IN 0x5fb8b9512684d451d4e585a1a0aabfb48a253c6711.59 ETH0.000958378609 ETH
0xcb876dcd7d379ad4ed8a331e0f5e3f910c08ea9377661e38a20e276b365fc56dSwap ETH For Exa...46785102022-01-15 21:25:021 day 7 hrs ago0x5fb8b9512684d451d4e585a1a0aabfb48a253c67OUT SushiSwap: Router2.642320917361096 ETH0.001615550012 ETH
0x83d4e97822f74dc6684832f77f4a7c48d3263942cd8fbb0f90e792cf48be3e20Transfer46784942022-01-15 21:23:261 day 7 hrs ago0x8a5038978cd9afa2fdc329a8ee8e81a8bb0f4e48 IN 0x5fb8b9512684d451d4e585a1a0aabfb48a253c673 ETH0.00096283138 ETH
0xb643e2f654a3fbab1c9a5e9828e0f8b69064cdcb932eb56083915c16cd907b24Transfer46666132022-01-15 12:41:131 day 16 hrs ago0x5fb8b9512684d451d4e585a1a0aabfb48a253c67OUT 0x32eb7902d4134bf98a28b963d26de779af92a2120 ETH0.001277598937 ETH
0xda934e8c61f2137062e066e1d81dd8544a5802688f9bd533e715f25fb64f7bc8Get Reward46665962022-01-15 12:40:181 day 16 hrs ago0x5fb8b9512684d451d4e585a1a0aabfb48a253c67OUT0xc6d714170fe766691670f12c2b45c1f34405aab60 ETH0.001201967681 ETH
0x2a847e0068418d15c73b89ccc6ae6419647e13b4ffba327ae691257bb3079966Transfer46665802022-01-15 12:40:181 day 16 hrs ago0x5fb8b9512684d451d4e585a1a0aabfb48a253c67OUT0x6c2c06790b3e3e3c38e12ee22f8183b37a13ee550 ETH0.001273738096 ETH
[ Download CSV Export 
Parent Txn Hash Block From To Value
Loading

Contract Name:
0 ETH

Compiler Version
0

Optimization Enabled:
0 ETH

Other Settings:
-NA-
Block Transaction Gas Used Reward
Age Block Fee Address BC Fee Address Voting Power Jailed Incoming
Block Uncle Number Difficulty Gas Used Reward
Loading
Loading
Make sure to use the "Vote Down" button for any spammy posts, and the "Vote Up" for interesting conversations.